Time;durP1;ratioP1;P1;durP2;ratioP2;P2;SDS_P1;SDS_P2;PMS_P1;PMS_P2;Temp;Humidity;BMP_temperature;BMP_pressure;BME280_temperature;BME280_humidity;BME280_pressure;Samples;Min_cycle;Max_cycle;Signal;HPM_P1;HPM_P2
2022/03/04 00:02:06;;;;;;;18.45;7.90;;;3.30;99.90;;;;;;5013332;28;20060;-86
2022/03/04 00:04:37;;;;;;;21.77;9.35;;;1.70;99.90;;;;;;5026593;28;20095;-86
2022/03/04 00:07:03;;;;;;;19.20;7.65;;;1.80;99.90;;;;;;5035363;28;20049;-86
2022/03/04 00:09:30;;;;;;;18.80;7.55;;;1.70;99.90;;;;;;5035435;28;20065;-86
2022/03/04 00:11:56;;;;;;;17.35;9.02;;;2.20;99.90;;;;;;5035068;28;20057;-86
2022/03/04 00:14:21;;;;;;;18.33;7.30;;;2.80;99.90;;;;;;5034139;28;20387;-85
2022/03/04 00:16:47;;;;;;;17.60;7.53;;;2.90;99.90;;;;;;5019280;28;20055;-86
2022/03/04 00:19:13;;;;;;;20.92;7.72;;;1.60;99.90;;;;;;4982749;28;20046;-86
2022/03/04 00:21:42;;;;;;;26.63;9.35;;;1.50;99.90;;;;;;5015193;28;20045;-86
2022/03/04 00:24:09;;;;;;;20.63;8.05;;;2.20;99.90;;;;;;5015940;28;20052;-86
2022/03/04 00:26:37;;;;;;;21.67;8.15;;;1.70;99.90;;;;;;4998552;28;20057;-85
2022/03/04 00:29:03;;;;;;;22.42;8.45;;;1.50;99.90;;;;;;4999272;28;20075;-87
2022/03/04 00:31:29;;;;;;;20.88;8.63;;;1.70;99.90;;;;;;5015093;28;20506;-86
2022/03/04 00:33:55;;;;;;;24.67;8.65;;;1.60;99.90;;;;;;5030747;28;20088;-86
2022/03/04 00:36:24;;;;;;;23.85;8.20;;;2.50;99.90;;;;;;5034396;28;20048;-86
2022/03/04 00:38:52;;;;;;;25.45;8.45;;;1.40;99.90;;;;;;4999087;28;20136;-87
2022/03/04 00:41:19;;;;;;;20.70;8.50;;;1.50;99.90;;;;;;4998701;28;20041;-86
2022/03/04 00:43:46;;;;;;;22.42;9.20;;;2.30;99.90;;;;;;5014308;28;20084;-85
2022/03/04 00:46:13;;;;;;;21.70;8.88;;;1.30;99.90;;;;;;5015191;28;20037;-84
2022/03/04 00:48:39;;;;;;;20.90;8.80;;;1.30;99.90;;;;;;5014968;28;20080;-85
2022/03/04 00:51:05;;;;;;;;;;;1.30;99.90;;;;;;5015662;28;20466;-86
2022/03/04 00:53:30;;;;;;;22.88;8.95;;;2.20;99.90;;;;;;5030474;28;20036;-86
2022/03/04 00:55:57;;;;;;;26.88;9.80;;;1.20;99.90;;;;;;5018743;28;20045;-86
2022/03/04 00:58:23;;;;;;;22.25;9.02;;;1.20;99.90;;;;;;5029045;28;20428;-85
2022/03/04 01:00:49;;;;;;;23.05;9.48;;;1.20;99.90;;;;;;5015187;28;20044;-86
2022/03/04 01:03:15;;;;;;;22.10;9.00;;;1.20;99.90;;;;;;5014833;28;20053;-85
2022/03/04 01:05:40;;;;;;;20.95;9.20;;;1.10;99.90;;;;;;5015119;28;20107;-85
2022/03/04 01:08:07;;;;;;;22.55;9.48;;;1.10;99.90;;;;;;4998370;28;20046;-86
2022/03/04 01:10:33;;;;;;;20.60;8.50;;;2.00;99.90;;;;;;5014552;28;20132;-87
2022/03/04 01:12:59;;;;;;;22.40;8.85;;;1.00;99.90;;;;;;5013357;28;20140;-87
2022/03/04 01:15:25;;;;;;;22.02;9.27;;;1.00;99.90;;;;;;5013460;28;20198;-86
2022/03/04 01:17:51;;;;;;;24.40;9.55;;;1.80;99.90;;;;;;5014829;28;20064;-86
2022/03/04 01:20:16;;;;;;;21.13;9.38;;;1.40;99.90;;;;;;5014270;28;20042;-85
2022/03/04 01:22:42;;;;;;;22.80;8.95;;;1.40;99.90;;;;;;5014033;28;20080;-86
2022/03/04 01:25:09;;;;;;;22.63;9.18;;;0.90;99.90;;;;;;5014823;28;20045;-85
2022/03/04 01:27:35;;;;;;;24.45;10.18;;;0.90;99.90;;;;;;5013634;28;20045;-85
2022/03/04 01:30:02;;;;;;;25.30;9.57;;;0.80;99.90;;;;;;5014373;28;20056;-86
2022/03/04 01:32:28;;;;;;;24.08;8.90;;;0.80;99.90;;;;;;5013941;28;20049;-87
2022/03/04 01:34:53;;;;;;;24.05;9.70;;;0.70;99.90;;;;;;5014740;28;20610;-87
2022/03/04 01:37:19;;;;;;;24.63;9.93;;;0.70;99.90;;;;;;5030615;28;20052;-86
2022/03/04 01:39:44;;;;;;;22.95;9.80;;;0.70;99.90;;;;;;5034200;28;20207;-86
2022/03/04 01:42:10;;;;;;;21.90;9.05;;;1.60;99.90;;;;;;5033355;28;20068;-87
2022/03/04 01:44:36;;;;;;;24.83;9.88;;;0.60;99.90;;;;;;5013418;28;20053;-86
2022/03/04 01:47:02;;;;;;;21.95;9.88;;;1.20;99.90;;;;;;5013863;28;20092;-86
2022/03/04 01:49:28;;;;;;;24.67;10.07;;;0.60;99.90;;;;;;5030385;28;20107;-87
2022/03/04 01:51:53;;;;;;;26.48;9.27;;;1.00;99.90;;;;;;4997260;28;20048;-86
2022/03/04 01:54:19;;;;;;;29.73;10.40;;;0.80;99.90;;;;;;5013476;28;20068;-85
2022/03/04 01:56:45;;;;;;;33.42;10.95;;;1.80;99.90;;;;;;4980203;28;20057;-87
2022/03/04 01:59:11;;;;;;;26.95;10.85;;;1.50;99.90;;;;;;4980584;28;20042;-86
2022/03/04 02:01:36;;;;;;;25.63;10.13;;;1.70;99.90;;;;;;5020751;28;20053;-86
2022/03/04 02:04:02;;;;;;;29.08;11.00;;;0.20;99.90;;;;;;4997898;28;20437;-87
2022/03/04 02:06:28;;;;;;;27.08;10.35;;;0.50;99.90;;;;;;5012772;28;20136;-87
2022/03/04 02:08:54;;;;;;;24.80;10.10;;;1.30;99.90;;;;;;5001939;28;20056;-87
2022/03/04 02:11:20;;;;;;;27.60;10.00;;;0.30;99.90;;;;;;5017095;28;20103;-85
2022/03/04 02:13:45;;;;;;;24.70;9.73;;;0.20;99.90;;;;;;5032297;28;20060;-87
2022/03/04 02:16:21;;;;;;;24.52;10.05;;;0.20;99.90;;;;;;5017302;28;20684;-87
2022/03/04 02:18:47;;;;;;;25.95;10.95;;;0.30;99.90;;;;;;5033377;28;20051;-86
2022/03/04 02:21:14;;;;;;;28.33;11.15;;;1.00;99.90;;;;;;5033300;28;20056;-87
2022/03/04 02:23:39;;;;;;;;;;;0.10;99.90;;;;;;5005512;28;20128;-87
2022/03/04 02:26:05;;;;;;;33.25;10.35;;;0.00;99.90;;;;;;4997510;28;20023;-87
2022/03/04 02:28:31;;;;;;;28.13;11.02;;;0.00;99.90;;;;;;5011941;28;20053;-86
2022/03/04 02:30:57;;;;;;;24.80;11.25;;;1.40;99.90;;;;;;5030188;28;20501;-87
2022/03/04 02:33:23;;;;;;;23.05;9.40;;;1.50;99.90;;;;;;4980709;28;20106;-86
2022/03/04 02:35:48;;;;;;;30.98;11.20;;;0.90;99.90;;;;;;5013192;28;20136;-86
2022/03/04 02:38:14;;;;;;;26.58;10.60;;;0.30;99.90;;;;;;5005964;28;20435;-87
2022/03/04 02:40:40;;;;;;;29.40;10.48;;;-0.10;99.90;;;;;;4999540;28;20522;-86
2022/03/04 02:43:06;;;;;;;33.28;11.07;;;-0.10;99.90;;;;;;5015889;28;20097;-87
2022/03/04 02:45:32;;;;;;;;;;;-0.20;99.90;;;;;;5015721;28;20052;-86
2022/03/04 02:47:58;;;;;;;28.75;10.35;;;-0.20;99.90;;;;;;5016159;28;19921;-87
2022/03/04 02:50:23;;;;;;;32.47;10.52;;;-0.20;99.90;;;;;;5033012;28;20052;-86
2022/03/04 02:52:49;;;;;;;30.20;11.50;;;0.40;99.90;;;;;;5015332;28;20041;-87
2022/03/04 02:55:15;;;;;;;28.90;11.18;;;-0.30;99.90;;;;;;5000092;28;20138;-86
2022/03/04 02:57:46;;;;;;;25.80;11.13;;;0.50;99.90;;;;;;5031809;28;20045;-87
2022/03/04 03:00:14;;;;;;;31.80;11.25;;;-0.40;99.90;;;;;;5024836;28;20042;-88
2022/03/04 03:02:41;;;;;;;34.83;13.13;;;-0.40;99.90;;;;;;5012683;28;20053;-87
2022/03/04 03:05:07;;;;;;;32.35;12.63;;;-0.50;99.90;;;;;;5013318;28;20057;-86
2022/03/04 03:07:32;;;;;;;;;;;-0.40;99.90;;;;;;5012605;28;20054;-87
2022/03/04 03:09:58;;;;;;;31.25;11.65;;;-0.50;99.90;;;;;;5013369;28;19925;-87
2022/03/04 03:12:25;;;;;;;31.42;11.77;;;-0.50;99.90;;;;;;5014502;28;20064;-85
2022/03/04 03:14:51;;;;;;;;;;;-0.20;99.90;;;;;;5033023;28;20072;-87
2022/03/04 03:17:16;;;;;;;26.27;10.60;;;-0.60;99.90;;;;;;5016535;28;20366;-87
2022/03/04 03:19:42;;;;;;;35.42;13.50;;;-0.70;99.90;;;;;;4999732;28;20056;-87
2022/03/04 03:22:09;;;;;;;35.72;12.27;;;-0.60;99.90;;;;;;5015903;28;20045;-87
2022/03/04 03:24:34;;;;;;;28.55;10.60;;;-0.60;99.90;;;;;;5016163;28;20056;-87
2022/03/04 03:27:00;;;;;;;31.58;12.35;;;-0.60;99.90;;;;;;5007562;28;20049;-87
2022/03/04 03:29:26;;;;;;;28.88;11.07;;;-0.60;99.90;;;;;;4980132;28;20042;-86
2022/03/04 03:31:56;;;;;;;29.48;11.75;;;0.50;99.90;;;;;;5012833;28;20575;-88
2022/03/04 03:34:22;;;;;;;30.08;11.07;;;-0.70;99.90;;;;;;5015133;28;20045;-87
2022/03/04 03:36:47;;;;;;;31.40;12.40;;;-0.80;99.90;;;;;;5025988;28;20114;-86
2022/03/04 03:39:13;;;;;;;30.73;12.50;;;0.30;99.90;;;;;;5016187;28;20041;-88
2022/03/04 03:41:39;;;;;;;35.92;13.55;;;-0.80;99.90;;;;;;4998883;28;20872;-87
2022/03/04 03:44:05;;;;;;;28.17;11.13;;;-0.70;99.90;;;;;;5016834;28;20085;-87
2022/03/04 03:46:31;;;;;;;37.80;14.07;;;-0.70;99.90;;;;;;5019328;28;20122;-87
2022/03/04 03:48:57;;;;;;;39.13;13.43;;;-0.70;99.90;;;;;;5019208;28;20052;-87
2022/03/04 03:51:23;;;;;;;32.83;13.43;;;0.50;99.90;;;;;;5035233;28;20406;-86
2022/03/04 03:53:49;;;;;;;34.35;12.68;;;0.90;99.90;;;;;;5002736;28;20045;-87
2022/03/04 03:56:14;;;;;;;34.67;14.05;;;0.70;99.90;;;;;;5018904;28;20486;-87
2022/03/04 03:58:40;;;;;;;32.45;11.70;;;0.10;99.90;;;;;;5018025;28;20045;-86
2022/03/04 04:01:06;;;;;;;31.95;12.82;;;-0.80;99.90;;;;;;5029841;28;20081;-87
2022/03/04 04:03:32;;;;;;;36.33;14.40;;;-0.90;99.90;;;;;;5030935;28;20127;-87
2022/03/04 04:05:57;;;;;;;31.10;12.55;;;-0.80;99.90;;;;;;5035925;28;20513;-88
2022/03/04 04:08:23;;;;;;;35.95;13.23;;;0.20;99.90;;;;;;4985256;28;20090;-87
2022/03/04 04:10:49;;;;;;;33.30;13.27;;;-0.90;99.90;;;;;;4999546;28;20054;-88
2022/03/04 04:13:15;;;;;;;37.40;14.50;;;0.40;99.90;;;;;;4999314;28;20049;-88
2022/03/04 04:15:41;;;;;;;35.38;14.63;;;-0.30;99.90;;;;;;4998907;28;20525;-88
2022/03/04 04:18:07;;;;;;;41.53;14.13;;;-1.00;99.90;;;;;;5016213;28;20056;-87
2022/03/04 04:20:32;;;;;;;34.38;11.73;;;-0.90;99.90;;;;;;4983508;28;20261;-88
2022/03/04 04:22:58;;;;;;;36.10;14.27;;;-1.00;99.90;;;;;;4999192;28;20041;-87
2022/03/04 04:25:24;;;;;;;31.88;11.73;;;-1.00;99.90;;;;;;5007608;28;20605;-88
2022/03/04 04:27:49;;;;;;;41.72;15.65;;;0.40;99.90;;;;;;4998521;28;20041;-87
2022/03/04 04:30:15;;;;;;;32.60;11.93;;;-0.90;99.90;;;;;;4999503;28;20115;-87
2022/03/04 04:32:41;;;;;;;36.78;13.23;;;-0.90;99.90;;;;;;5018117;28;20124;-87
2022/03/04 04:35:07;;;;;;;36.28;13.30;;;-0.90;99.90;;;;;;4983474;28;20129;-87
2022/03/04 04:37:33;;;;;;;37.53;14.77;;;-0.90;99.90;;;;;;5014715;28;20046;-87
2022/03/04 04:39:58;;;;;;;33.08;12.13;;;-0.80;99.90;;;;;;4999404;28;20046;-88
2022/03/04 04:42:24;;;;;;;37.60;13.52;;;-0.90;99.90;;;;;;4998813;28;20050;-87
2022/03/04 04:44:50;;;;;;;30.13;11.40;;;-0.90;99.90;;;;;;4984697;28;20100;-87
2022/03/04 04:47:16;;;;;;;37.13;14.73;;;-0.90;99.90;;;;;;4997945;28;20049;-88
2022/03/04 04:49:42;;;;;;;37.67;14.32;;;-0.90;99.90;;;;;;4999037;28;20049;-87
2022/03/04 04:52:08;;;;;;;36.90;13.07;;;-0.30;99.90;;;;;;5002750;28;20041;-88
2022/03/04 04:54:34;;;;;;;39.05;14.13;;;-0.80;99.90;;;;;;5002532;28;20076;-87
2022/03/04 04:57:00;;;;;;;35.22;13.93;;;0.40;99.90;;;;;;5018249;28;20049;-88
2022/03/04 04:59:26;;;;;;;33.80;13.27;;;0.50;99.90;;;;;;5002079;28;20072;-88
2022/03/04 05:01:52;;;;;;;33.50;13.85;;;0.50;99.90;;;;;;5018289;28;20087;-87
2022/03/04 05:04:18;;;;;;;35.83;14.13;;;-0.80;99.90;;;;;;5002858;28;20049;-87
2022/03/04 05:06:44;;;;;;;36.72;14.10;;;-0.30;99.90;;;;;;5011172;28;20080;-87
2022/03/04 05:09:09;;;;;;;38.15;15.43;;;-0.90;99.90;;;;;;5018849;28;20505;-88
2022/03/04 05:11:35;;;;;;;33.80;13.48;;;-0.80;99.90;;;;;;5034099;28;20053;-87
2022/03/04 05:14:01;;;;;;;37.58;14.32;;;0.00;99.90;;;;;;5012065;28;20128;-88
2022/03/04 05:16:29;;;;;;;40.30;15.27;;;0.30;99.90;;;;;;5015736;28;20758;-88
2022/03/04 05:18:55;;;;;;;35.58;14.07;;;0.60;99.90;;;;;;5009237;28;20056;-87
2022/03/04 05:21:21;;;;;;;40.40;14.90;;;-0.80;99.90;;;;;;5015464;28;20128;-88
2022/03/04 05:23:59;;;;;;;38.38;14.77;;;0.40;99.90;;;;;;4983909;28;20049;-88
2022/03/04 05:26:26;;;;;;;38.67;15.15;;;-1.00;99.90;;;;;;4989037;28;20410;-86
2022/03/04 05:28:51;;;;;;;38.95;14.43;;;-0.70;99.90;;;;;;5026329;28;20063;-87
2022/03/04 05:31:17;;;;;;;35.35;14.70;;;-0.80;99.90;;;;;;5001984;28;20072;-88
2022/03/04 05:33:43;;;;;;;37.28;15.25;;;-0.50;99.90;;;;;;5034272;28;20785;-88
2022/03/04 05:36:09;;;;;;;38.63;14.70;;;-0.70;99.90;;;;;;5001806;28;20052;-87
2022/03/04 05:38:34;;;;;;;36.78;13.05;;;-0.70;99.90;;;;;;5017466;28;20119;-87
2022/03/04 05:41:00;;;;;;;44.38;15.80;;;-0.70;99.90;;;;;;5017714;28;20128;-86
2022/03/04 05:43:26;;;;;;;39.17;15.25;;;0.60;99.90;;;;;;5000423;28;20720;-86
2022/03/04 05:45:51;;;;;;;38.95;15.73;;;0.20;99.90;;;;;;5009870;28;20056;-88
2022/03/04 05:48:18;;;;;;;40.25;15.20;;;-0.80;99.90;;;;;;4978611;28;20119;-88
2022/03/04 05:50:43;;;;;;;;;;;-0.70;99.90;;;;;;5018604;28;20129;-87
2022/03/04 05:53:09;;;;;;;34.13;13.05;;;-0.70;99.90;;;;;;4986028;28;20000;-88
2022/03/04 05:55:35;;;;;;;39.22;14.65;;;-0.80;99.90;;;;;;4994575;28;20054;-88
2022/03/04 05:58:01;;;;;;;38.80;15.20;;;-0.80;99.90;;;;;;4993032;28;20046;-88
2022/03/04 06:00:27;;;;;;;38.83;16.17;;;-0.80;99.90;;;;;;4994120;28;20049;-88
2022/03/04 06:02:53;;;;;;;;;;;0.50;99.90;;;;;;4994371;28;20140;-89
2022/03/04 06:05:20;;;;;;;41.33;15.48;;;0.60;99.90;;;;;;4978679;28;20017;-88
2022/03/04 06:07:45;;;;;;;38.97;16.13;;;-0.60;99.90;;;;;;4993944;28;20084;-88
2022/03/04 06:10:11;;;;;;;36.15;15.10;;;0.90;99.90;;;;;;4978535;28;20510;-88
2022/03/04 06:12:37;;;;;;;39.47;15.60;;;1.00;99.90;;;;;;4988002;28;20051;-88
2022/03/04 06:15:03;;;;;;;43.63;17.13;;;-0.60;99.90;;;;;;5013569;28;20053;-88
2022/03/04 06:17:29;;;;;;;37.00;15.82;;;-0.20;99.90;;;;;;5013955;28;20126;-88
2022/03/04 06:19:54;;;;;;;36.75;14.57;;;0.00;99.90;;;;;;4997165;28;20052;-88
2022/03/04 06:22:21;;;;;;;40.33;14.73;;;0.70;99.90;;;;;;4981000;28;20399;-87
2022/03/04 06:24:47;;;;;;;44.70;15.05;;;0.70;99.90;;;;;;4977504;28;20049;-88
2022/03/04 06:27:13;;;;;;;38.05;14.25;;;-0.70;99.90;;;;;;4993964;28;20107;-89
2022/03/04 06:29:38;;;;;;;41.45;16.60;;;-0.70;99.90;;;;;;4993720;28;20502;-89
2022/03/04 06:32:04;;;;;;;46.05;16.88;;;-0.70;99.90;;;;;;4963058;28;20065;-88
2022/03/04 06:34:30;;;;;;;39.53;16.50;;;-0.70;99.90;;;;;;5013911;28;20071;-88
2022/03/04 06:36:56;;;;;;;39.67;15.13;;;-0.70;99.90;;;;;;5012258;28;20053;-88
2022/03/04 06:39:21;;;;;;;41.40;15.18;;;-0.70;99.90;;;;;;4997097;28;20455;-88
2022/03/04 06:41:48;;;;;;;43.58;15.07;;;-0.80;99.90;;;;;;4996150;28;20049;-88
2022/03/04 06:44:14;;;;;;;36.90;13.25;;;-0.50;99.90;;;;;;5009467;28;20101;-88
2022/03/04 06:46:40;;;;;;;32.53;12.00;;;0.70;99.90;;;;;;5010193;28;20459;-87
2022/03/04 06:49:10;;;;;;;31.85;12.65;;;0.80;99.90;;;;;;4993195;28;20140;-88
2022/03/04 06:51:37;;;;;;;41.45;15.02;;;-0.50;99.90;;;;;;5005755;28;20053;-88
2022/03/04 06:54:03;;;;;;;39.85;14.50;;;-0.80;99.90;;;;;;5012756;28;20333;-87
2022/03/04 06:56:29;;;;;;;51.28;17.40;;;-0.40;99.90;;;;;;5012891;28;20522;-87
2022/03/04 06:58:54;;;;;;;36.45;13.93;;;-0.70;99.90;;;;;;5012536;28;20037;-85
2022/03/04 07:01:21;;;;;;;35.75;14.30;;;-0.70;99.90;;;;;;4996741;28;20448;-86
2022/03/04 07:03:47;;;;;;;45.25;15.77;;;-0.70;99.90;;;;;;4996712;28;20045;-86
2022/03/04 07:06:13;;;;;;;;;;;0.20;99.90;;;;;;4997095;28;20041;-86
2022/03/04 07:08:38;;;;;;;33.20;12.88;;;0.90;99.90;;;;;;5029527;28;19988;-86
2022/03/04 07:11:04;;;;;;;39.53;14.32;;;0.60;99.90;;;;;;5015318;28;20092;-86
2022/03/04 07:13:30;;;;;;;24.85;9.23;;;-0.60;99.90;;;;;;5031956;28;20045;-87
2022/03/04 07:15:56;;;;;;;36.53;13.55;;;0.40;99.90;;;;;;5016719;28;20107;-87
2022/03/04 07:18:23;;;;;;;39.17;15.52;;;0.20;99.90;;;;;;5017324;28;20100;-87
2022/03/04 07:20:49;;;;;;;43.33;16.08;;;0.40;99.90;;;;;;5016978;28;20123;-87
2022/03/04 07:23:16;;;;;;;41.35;14.30;;;-0.60;99.90;;;;;;5033582;28;20052;-88
2022/03/04 07:25:42;;;;;;;43.97;16.25;;;-0.60;99.90;;;;;;5029728;28;20042;-86
2022/03/04 07:28:08;;;;;;;40.42;16.40;;;-0.60;99.90;;;;;;5015808;28;20679;-87
2022/03/04 07:30:35;;;;;;;39.90;14.75;;;0.70;99.90;;;;;;5017921;28;20045;-92
2022/03/04 07:33:02;;;;;;;46.88;17.55;;;0.40;99.90;;;;;;5016625;28;20099;-88
2022/03/04 07:35:33;;;;;;;39.83;15.13;;;0.20;99.90;;;;;;5016939;28;20045;-85
2022/03/04 07:37:59;;;;;;;44.58;16.98;;;0.80;99.90;;;;;;5000980;28;20103;-87
2022/03/04 07:40:25;;;;;;;44.83;15.23;;;1.70;99.90;;;;;;5017893;28;20049;-88
2022/03/04 07:42:51;;;;;;;38.15;13.82;;;-0.40;99.90;;;;;;5000690;28;20060;-85
2022/03/04 07:45:16;;;;;;;47.25;17.33;;;1.00;99.90;;;;;;5017240;28;20398;-87
2022/03/04 07:47:43;;;;;;;40.22;14.40;;;-0.30;99.90;;;;;;5017194;28;20488;-88
2022/03/04 07:50:11;;;;;;;41.58;15.88;;;-0.40;99.90;;;;;;5017269;28;20415;-87
2022/03/04 07:52:37;;;;;;;44.55;16.30;;;-0.20;99.90;;;;;;5016663;28;20049;-87
2022/03/04 07:55:05;;;;;;;37.75;14.35;;;-0.20;99.90;;;;;;5016175;28;20060;-87
2022/03/04 07:57:31;;;;;;;39.30;15.38;;;-0.20;99.90;;;;;;5000425;28;20045;-88
2022/03/04 07:59:57;;;;;;;37.92;14.60;;;-0.20;99.90;;;;;;4999867;28;20475;-87
2022/03/04 08:02:23;;;;;;;;;;;-0.40;99.90;;;;;;5016781;28;20140;-87
2022/03/04 08:04:49;;;;;;;40.45;15.40;;;-0.30;99.90;;;;;;5013713;28;20015;-87
2022/03/04 08:07:14;;;;;;;37.20;13.68;;;-0.20;99.90;;;;;;5000257;28;20049;-87
2022/03/04 08:09:41;;;;;;;45.50;15.98;;;-0.10;99.90;;;;;;5016882;28;20049;-87
2022/03/04 08:12:08;;;;;;;46.47;16.27;;;-0.10;99.90;;;;;;5015811;28;20132;-88
2022/03/04 08:14:34;;;;;;;38.35;14.05;;;-0.10;99.90;;;;;;5016774;28;20045;-89
2022/03/04 08:16:59;;;;;;;38.83;14.68;;;0.80;99.90;;;;;;5016305;28;20064;-88
2022/03/04 08:19:25;;;;;;;44.35;15.32;;;0.70;99.90;;;;;;4999723;28;20107;-86
2022/03/04 08:21:51;;;;;;;44.55;15.77;;;0.10;99.90;;;;;;4999577;28;20057;-87
2022/03/04 08:24:17;;;;;;;42.97;14.85;;;0.10;99.90;;;;;;4983576;28;20099;-88
2022/03/04 08:26:42;;;;;;;51.00;17.27;;;0.10;99.90;;;;;;5016511;28;20596;-89
2022/03/04 08:29:10;;;;;;;51.63;17.83;;;0.30;99.90;;;;;;5015695;28;20057;-88
2022/03/04 08:31:36;;;;;;;51.85;18.33;;;0.30;99.90;;;;;;5016761;28;20063;-89
2022/03/04 08:34:02;;;;;;;;;;;0.40;99.90;;;;;;5016373;28;20144;-89
2022/03/04 08:36:28;;;;;;;46.85;15.65;;;0.90;99.90;;;;;;5032066;28;20344;-88
2022/03/04 08:38:53;;;;;;;45.63;16.88;;;1.30;99.90;;;;;;5016194;28;20041;-88
2022/03/04 08:41:19;;;;;;;45.53;18.20;;;0.60;99.90;;;;;;5011921;28;20059;-87
2022/03/04 08:43:47;;;;;;;46.22;18.02;;;1.80;99.90;;;;;;4996499;28;20057;-87
2022/03/04 08:46:14;;;;;;;49.03;17.95;;;0.70;99.90;;;;;;5011447;28;20045;-86
2022/03/04 08:48:43;;;;;;;43.60;16.83;;;1.70;99.90;;;;;;5020572;28;20057;-87
2022/03/04 08:51:09;;;;;;;46.17;16.98;;;0.80;99.90;;;;;;5011304;28;20038;-87
2022/03/04 08:53:35;;;;;;;;;;;1.00;99.90;;;;;;5009325;28;20502;-87
2022/03/04 08:56:03;;;;;;;46.60;17.20;;;2.40;99.90;;;;;;5030457;28;19976;-86
2022/03/04 08:58:29;;;;;;;46.22;18.85;;;1.80;99.90;;;;;;5029779;28;20056;-87
2022/03/04 09:00:55;;;;;;;55.08;18.55;;;1.50;99.90;;;;;;4978937;28;20046;-86
2022/03/04 09:03:21;;;;;;;49.67;19.52;;;1.10;99.90;;;;;;5013166;28;20049;-86
2022/03/04 09:05:48;;;;;;;51.92;19.15;;;;;;;;;;5000113;28;20766;-88
2022/03/04 09:08:14;;;;;;;51.47;20.20;;;1.30;99.90;;;;;;5013117;28;20049;-88
2022/03/04 09:10:40;;;;;;;;;;;2.50;99.90;;;;;;5014510;28;20122;-87
2022/03/04 09:13:06;;;;;;;50.42;18.40;;;2.10;99.90;;;;;;5012632;28;20378;-90
2022/03/04 09:15:32;;;;;;;47.13;17.67;;;2.30;99.90;;;;;;4998431;28;20049;-88
2022/03/04 09:17:58;;;;;;;45.47;17.58;;;2.50;99.90;;;;;;4998892;28;20138;-88
2022/03/04 09:20:24;;;;;;;;;;;2.70;99.90;;;;;;5015128;28;20071;-88
2022/03/04 09:22:50;;;;;;;51.72;19.27;;;2.40;99.90;;;;;;4993979;28;19926;-88
2022/03/04 09:25:16;;;;;;;47.63;17.95;;;2.80;99.90;;;;;;4997323;28;20053;-87
2022/03/04 09:27:43;;;;;;;44.70;17.63;;;1.50;99.90;;;;;;5030138;28;20426;-87
2022/03/04 09:30:11;;;;;;;52.13;17.13;;;2.60;99.90;;;;;;5030495;28;20582;-86
2022/03/04 09:32:38;;;;;;;49.30;17.77;;;1.60;99.90;;;;;;4997823;28;20107;-87
2022/03/04 09:35:05;;;;;;;51.13;20.15;;;2.10;99.90;;;;;;5014394;28;20132;-88
2022/03/04 09:37:31;;;;;;;48.67;17.63;;;1.60;99.90;;;;;;5009094;28;20136;-88
2022/03/04 09:39:57;;;;;;;57.28;20.58;;;1.80;99.90;;;;;;5039819;28;20116;-88
2022/03/04 09:42:24;;;;;;;54.10;18.23;;;2.90;99.90;;;;;;4994560;28;20053;-88
2022/03/04 09:44:50;;;;;;;56.13;18.73;;;1.90;99.90;;;;;;4988388;28;20135;-87
2022/03/04 09:47:23;;;;;;;48.15;19.90;;;1.90;99.90;;;;;;5016410;28;20091;-87
2022/03/04 09:49:51;;;;;;;45.80;17.75;;;2.70;99.90;;;;;;5033671;28;20428;-87
2022/03/04 09:52:17;;;;;;;48.75;19.55;;;2.50;99.90;;;;;;5033095;28;20428;-88
2022/03/04 09:54:47;;;;;;;;;;;2.00;99.90;;;;;;5035704;28;20095;-87
2022/03/04 09:57:13;;;;;;;44.65;17.67;;;1.90;99.90;;;;;;5033180;28;19927;-87
2022/03/04 09:59:39;;;;;;;41.30;17.17;;;1.80;99.90;;;;;;5030542;28;20045;-87
2022/03/04 10:02:05;;;;;;;43.97;16.70;;;1.90;99.90;;;;;;5001089;28;20056;-87
2022/03/04 10:04:33;;;;;;;44.83;17.58;;;1.80;99.90;;;;;;5014022;28;20044;-88
2022/03/04 10:07:09;;;;;;;44.65;18.00;;;2.60;99.90;;;;;;5015023;28;20051;-87
2022/03/04 10:09:35;;;;;;;45.67;18.83;;;1.90;99.90;;;;;;5014333;28;20060;-87
2022/03/04 10:12:03;;;;;;;45.03;18.45;;;2.60;99.90;;;;;;5013335;28;20052;-87
2022/03/04 10:14:28;;;;;;;50.80;19.65;;;2.00;99.90;;;;;;5014027;28;20090;-87
2022/03/04 10:16:56;;;;;;;48.30;18.58;;;3.10;99.90;;;;;;4998830;28;20591;-87
2022/03/04 10:19:23;;;;;;;44.22;17.90;;;3.30;99.90;;;;;;5008348;28;20486;-89
2022/03/04 10:21:57;;;;;;;50.53;19.20;;;3.50;99.90;;;;;;5033694;28;20048;-88
2022/03/04 10:24:36;;;;;;;39.47;17.30;;;3.50;99.90;;;;;;5033725;28;20037;-88
2022/03/04 10:27:08;;;;;;;37.25;16.38;;;2.60;99.90;;;;;;5033954;28;20128;-88
2022/03/04 10:29:41;;;;;;;39.08;16.95;;;2.60;99.90;;;;;;5032899;28;20060;-87
2022/03/04 10:32:19;;;;;;;43.95;17.88;;;2.70;99.90;;;;;;5010948;28;20048;-87
2022/03/04 10:34:48;;;;;;;44.88;17.98;;;2.80;99.90;;;;;;5016184;28;20057;-88
2022/03/04 10:37:17;;;;;;;41.00;15.48;;;2.90;99.90;;;;;;5017189;28;20093;-93
2022/03/04 10:40:04;;;;;;;37.05;15.70;;;3.50;99.90;;;;;;5000618;28;20397;-88
2022/03/04 10:42:42;;;;;;;32.28;14.80;;;3.10;99.90;;;;;;5013985;28;20049;-88
2022/03/04 10:45:17;;;;;;;37.03;13.73;;;3.20;99.90;;;;;;5016163;28;20059;-88
2022/03/04 10:47:49;;;;;;;32.13;14.27;;;3.90;99.90;;;;;;5032638;28;20084;-87
2022/03/04 10:50:18;;;;;;;29.67;12.20;;;4.10;99.90;;;;;;5023842;28;20045;-88
2022/03/04 10:52:53;;;;;;;27.02;11.00;;;3.80;99.90;;;;;;5014196;28;20049;-88
2022/03/04 10:55:50;;;;;;;29.30;13.93;;;4.00;99.90;;;;;;5014301;28;20052;-88
2022/03/04 10:58:24;;;;;;;28.67;12.35;;;3.60;99.90;;;;;;4980053;28;20092;-87
2022/03/04 11:01:02;;;;;;;27.02;12.68;;;3.70;99.90;;;;;;5032924;28;20045;-88
2022/03/04 11:03:31;;;;;;;27.55;12.75;;;3.80;99.90;;;;;;5017076;28;20400;-88
2022/03/04 11:06:02;;;;;;;25.80;12.90;;;3.90;99.90;;;;;;4996367;28;20046;-88
2022/03/04 11:08:28;;;;;;;26.23;11.35;;;4.50;99.90;;;;;;5012241;28;20450;-88
2022/03/04 11:10:55;;;;;;;32.13;13.30;;;4.10;99.90;;;;;;5013689;28;20053;-88
2022/03/04 11:13:22;;;;;;;27.88;12.60;;;4.20;99.90;;;;;;5013310;28;20052;-88
2022/03/04 11:15:49;;;;;;;26.73;12.55;;;4.90;99.90;;;;;;5016035;28;20040;-88
2022/03/04 11:18:25;;;;;;;27.27;11.50;;;4.60;99.90;;;;;;4981819;28;20084;-88
2022/03/04 11:20:56;;;;;;;27.02;11.00;;;5.50;99.90;;;;;;5010688;28;20052;-87
2022/03/04 11:23:24;;;;;;;27.67;11.68;;;4.70;99.90;;;;;;5032003;28;20045;-87
2022/03/04 11:26:04;;;;;;;25.58;11.95;;;5.60;99.90;;;;;;5033478;28;20045;-88
2022/03/04 11:28:39;;;;;;;25.92;9.93;;;5.70;99.90;;;;;;5030751;28;20051;-87
2022/03/04 11:31:09;;;;;;;24.75;10.80;;;5.10;99.90;;;;;;5019845;28;20053;-88
2022/03/04 11:33:43;;;;;;;25.73;12.18;;;6.00;99.90;;;;;;5024779;28;20052;-88
2022/03/04 11:36:15;;;;;;;26.15;11.73;;;5.70;99.90;;;;;;5025892;28;20053;-87
2022/03/04 11:38:44;;;;;;;26.88;11.75;;;5.50;99.90;;;;;;5016034;28;20067;-88
2022/03/04 11:41:11;;;;;;;24.85;9.98;;;5.60;99.90;;;;;;5017446;28;20190;-86
2022/03/04 11:43:44;;;;;;;23.85;11.65;;;5.80;99.90;;;;;;5019025;28;20522;-88
2022/03/04 11:46:40;;;;;;;27.08;10.32;;;6.40;99.90;;;;;;5001853;28;20123;-87
2022/03/04 11:49:27;;;;;;;21.60;9.85;;;6.20;99.90;;;;;;5019547;28;20136;-92
2022/03/04 11:52:11;;;;;;;24.02;10.38;;;6.50;99.90;;;;;;5015135;28;20050;-90
2022/03/04 11:54:50;;;;;;;22.70;10.57;;;6.60;99.90;;;;;;4999127;28;20494;-90
2022/03/04 11:57:16;;;;;;;23.77;9.85;;;6.80;99.90;;;;;;5001546;28;20053;-88
2022/03/04 11:59:56;;;;;;;23.15;10.70;;;7.10;99.90;;;;;;5029089;28;20127;-88
2022/03/04 12:02:29;;;;;;;21.25;10.57;;;7.40;99.90;;;;;;5007166;28;20132;-88
2022/03/04 12:05:25;;;;;;;20.02;9.23;;;7.70;99.90;;;;;;5002903;28;20049;-88
2022/03/04 12:08:00;;;;;;;21.27;10.43;;;8.10;99.90;;;;;;5018808;28;20132;-89
2022/03/04 12:10:29;;;;;;;20.73;11.55;;;8.40;99.90;;;;;;5002793;28;20052;-88
2022/03/04 12:13:05;;;;;;;21.27;10.43;;;8.60;99.90;;;;;;5003072;28;20041;-88
2022/03/04 12:15:32;;;;;;;20.70;9.87;;;8.90;99.90;;;;;;5002640;28;20041;-88
2022/03/04 12:18:03;;;;;;;21.10;10.43;;;9.10;99.90;;;;;;5018983;28;20137;-89
2022/03/04 12:21:10;;;;;;;20.20;10.70;;;9.20;99.90;;;;;;5001786;28;20398;-89
2022/03/04 12:23:49;;;;;;;21.73;11.15;;;9.50;99.90;;;;;;5018339;28;20049;-89
2022/03/04 12:26:28;;;;;;;23.08;11.38;;;9.70;99.90;;;;;;5018818;28;20049;-91
2022/03/04 12:29:09;;;;;;;22.35;11.88;;;9.90;99.90;;;;;;5002406;28;20383;-88
2022/03/04 12:31:46;;;;;;;18.75;10.45;;;10.20;99.90;;;;;;5002285;28;20037;-90
2022/03/04 12:34:21;;;;;;;;;;;10.40;99.90;;;;;;5004444;28;20053;-89
2022/03/04 12:36:53;;;;;;;19.25;10.93;;;10.60;99.90;;;;;;5003060;28;19927;-89
2022/03/04 12:39:50;;;;;;;19.65;11.05;;;10.80;99.90;;;;;;5002017;28;20553;-89
2022/03/04 12:42:21;;;;;;;19.73;11.07;;;11.00;99.90;;;;;;5019399;28;20517;-91
2022/03/04 12:44:53;;;;;;;21.27;11.40;;;11.10;99.90;;;;;;5009532;28;20482;-89